Ingalls, Michigan
Current Conditions -  °F | °C
As of 8:55 AM on Monday 22 Dec 2014 (Local Time) from KMNM Reporting Station
Overcast Overcast  
Wind Chill: 27°   Ceiling: 800
Heat Index: 36°   Visibility: 3mi
Dew Point: 34°   Wind: 13mph
Humidity: 93%   Direction: 170°S
Pressure: 29.93"   Gusts: 17mph
Location:  45.38°N, 87.61°W
Report Text: KMNM 221455Z AUTO 17011G15KT 3SM OVC008 02/01 A2993 RMK AO1 54000
Loading
Personal Weather Stations






























Interactive Weather Map New forecast layout! Learn more

10-Day Weather Forecast

Advertisements
Track Severe Weather on mobile